Alanreed, Texas
Current Conditions -  °F | °C
As of 7:35 PM on Wednesday 26 Nov 2014 (Local Time) from KPPA Reporting Station
Clear Clear  
Wind Chill: 27°   Ceiling: Unl
Heat Index: 33°   Visibility: 10mi
Dew Point: 22°   Wind: 7mph
Humidity: 64%   Direction: 70°ENE
Pressure: 30.35"   Gusts: NA
Location:  35.21°N, 100.74°W
Report Text: KPPA 270135Z AUTO 07006KT 10SM CLR 01/M06 A3035 RMK AO2 T00061056 PNO
Loading
Personal Weather Stations






























Interactive Weather Map New forecast layout! Learn more

10-Day Weather Forecast

Advertisements
Track Severe Weather on mobile